Time;durP1;ratioP1;P1;durP2;ratioP2;P2;SDS_P1;SDS_P2;PMS_P1;PMS_P2;Temp;Humidity;BMP_temperature;BMP_pressure;BME280_temperature;BME280_humidity;BME280_pressure;Samples;Min_cycle;Max_cycle;Signal;HPM_P1;HPM_P2
2022/05/17 00:00:42;;;;;;;0.60;0.20;;;19.10;1.00;;;;;;5033344;28;20447;-75
2022/05/17 00:03:12;;;;;;;0.60;0.10;;;19.00;1.00;;;;;;5033432;28;21037;-74
2022/05/17 00:05:39;;;;;;;0.60;0.10;;;19.00;1.00;;;;;;5033609;28;20461;-75
2022/05/17 00:08:08;;;;;;;0.60;0.10;;;19.00;1.00;;;;;;5033352;28;20462;-75
2022/05/17 00:10:36;;;;;;;0.60;0.10;;;18.90;1.00;;;;;;5033683;28;20453;-74
2022/05/17 00:13:04;;;;;;;0.60;0.10;;;18.90;1.00;;;;;;5033423;28;20501;-75
2022/05/17 00:15:34;;;;;;;0.60;0.17;;;18.90;1.00;;;;;;5033160;28;20450;-74
2022/05/17 00:18:03;;;;;;;0.60;0.10;;;;;;;;;;5032744;28;20468;-75
2022/05/17 00:20:33;;;;;;;0.60;0.10;;;18.90;1.00;;;;;;5033253;28;20454;-75
2022/05/17 00:23:02;;;;;;;0.60;0.10;;;18.80;1.00;;;;;;5033146;28;20470;-75
2022/05/17 00:25:30;;;;;;;0.60;0.10;;;18.80;1.00;;;;;;5032890;28;20916;-74
2022/05/17 00:27:59;;;;;;;0.60;0.10;;;18.80;1.00;;;;;;5051431;28;20990;-74
2022/05/17 00:30:27;;;;;;;0.60;0.20;;;18.80;1.00;;;;;;5054091;28;20442;-74
2022/05/17 00:32:55;;;;;;;0.60;0.10;;;18.80;1.00;;;;;;5053651;28;20495;-74
2022/05/17 00:35:23;;;;;;;0.60;0.10;;;18.70;1.00;;;;;;5054157;28;20503;-73
2022/05/17 00:37:52;;;;;;;0.60;0.10;;;18.70;1.00;;;;;;5054429;28;20452;-75
2022/05/17 00:40:20;;;;;;;0.60;0.10;;;18.70;1.00;;;;;;5055379;28;20547;-75
2022/05/17 00:42:48;;;;;;;0.60;0.20;;;18.60;1.00;;;;;;5054769;28;20473;-75
2022/05/17 00:45:15;;;;;;;0.60;0.20;;;18.60;1.00;;;;;;5054519;28;20461;-74
2022/05/17 00:47:46;;;;;;;0.60;0.10;;;18.50;1.00;;;;;;5053187;28;20537;-75
2022/05/17 00:50:29;;;;;;;0.60;0.20;;;18.00;1.00;;;;;;5052913;28;20929;-75
2022/05/17 00:53:02;;;;;;;0.60;0.10;;;18.50;1.00;;;;;;5052040;28;20513;-74
2022/05/17 00:55:35;;;;;;;30.25;22.05;;;18.50;1.00;;;;;;5052687;28;20447;-74
2022/05/17 00:58:10;;;;;;;0.60;0.20;;;18.40;1.00;;;;;;5052282;28;20201;-74
2022/05/17 01:00:42;;;;;;;0.60;0.10;;;18.40;1.00;;;;;;5052458;28;20949;-74
2022/05/17 01:03:13;;;;;;;0.70;0.30;;;18.30;1.00;;;;;;5052576;28;20477;-74
2022/05/17 01:05:44;;;;;;;3.50;0.77;;;18.30;1.00;;;;;;5052251;28;20443;-74
2022/05/17 01:08:16;;;;;;;0.80;0.73;;;18.30;1.00;;;;;;5052059;28;20443;-73
2022/05/17 01:10:44;;;;;;;0.70;0.43;;;18.20;1.00;;;;;;5052534;28;20450;-75
2022/05/17 01:15:58;;;;;;;0.60;0.20;;;18.20;1.00;;;;;;5051811;28;20452;-76
2022/05/17 01:18:26;;;;;;;0.60;0.10;;;18.30;1.00;;;;;;5051682;28;20447;-74
2022/05/17 01:20:58;;;;;;;0.60;0.20;;;18.30;1.00;;;;;;5051674;28;20864;-75
2022/05/17 01:23:26;;;;;;;1.23;1.13;;;18.40;1.00;;;;;;5051965;28;20463;-73
2022/05/17 01:25:53;;;;;;;0.60;0.10;;;18.40;1.00;;;;;;5050769;28;20555;-73
2022/05/17 01:28:25;;;;;;;0.60;0.10;;;18.50;1.00;;;;;;5031100;28;20477;-73
2022/05/17 01:30:54;;;;;;;0.60;0.10;;;18.50;1.00;;;;;;5031911;28;20534;-74
2022/05/17 01:33:23;;;;;;;0.60;0.10;;;18.50;1.00;;;;;;5031727;28;20487;-74
2022/05/17 01:35:51;;;;;;;0.60;0.10;;;18.50;1.00;;;;;;5031852;28;20823;-74
2022/05/17 01:38:20;;;;;;;0.60;0.10;;;18.50;1.00;;;;;;5031494;28;20967;-75
2022/05/17 01:40:48;;;;;;;0.60;0.20;;;18.50;1.00;;;;;;5032142;28;20817;-73
2022/05/17 01:43:16;;;;;;;0.60;0.10;;;18.50;1.00;;;;;;5031892;28;20551;-73
2022/05/17 01:45:44;;;;;;;0.60;0.10;;;18.50;1.00;;;;;;5032304;28;20457;-73
2022/05/17 01:48:12;;;;;;;0.60;0.10;;;18.50;1.00;;;;;;5033849;28;20487;-73
2022/05/17 01:50:40;;;;;;;0.60;0.10;;;18.50;1.00;;;;;;5034019;28;20678;-72
2022/05/17 01:53:08;;;;;;;0.60;0.10;;;18.50;1.00;;;;;;5034021;28;20569;-73
2022/05/17 01:55:38;;;;;;;0.60;0.10;;;18.50;1.00;;;;;;5031532;28;20919;-73
2022/05/17 01:58:06;;;;;;;0.60;0.10;;;18.40;1.00;;;;;;5031151;28;20437;-72
2022/05/17 02:00:35;;;;;;;0.60;0.10;;;18.40;1.00;;;;;;5030642;28;20446;-74
2022/05/17 02:03:03;;;;;;;0.60;0.10;;;18.30;1.00;;;;;;5023197;28;20555;-72
2022/05/17 02:05:31;;;;;;;0.60;0.10;;;18.30;1.00;;;;;;5031570;28;20453;-74
2022/05/17 02:07:59;;;;;;;0.60;0.10;;;18.30;1.00;;;;;;5031108;28;20969;-74
2022/05/17 02:10:27;;;;;;;0.60;0.10;;;18.30;1.00;;;;;;5031398;28;20212;-73
2022/05/17 02:12:58;;;;;;;0.60;0.10;;;18.30;1.00;;;;;;5031664;28;20485;-74
2022/05/17 02:15:26;;;;;;;0.60;0.10;;;18.20;1.00;;;;;;5032071;28;20785;-74
2022/05/17 02:17:54;;;;;;;0.60;0.10;;;18.20;1.00;;;;;;5030877;28;21014;-74
2022/05/17 02:20:22;;;;;;;0.60;0.10;;;18.20;1.00;;;;;;5031582;28;20437;-73
2022/05/17 02:22:50;;;;;;;0.60;0.20;;;18.10;1.00;;;;;;5031286;28;20499;-73
2022/05/17 02:25:18;;;;;;;0.60;0.20;;;18.10;1.00;;;;;;5030895;28;20791;-75
2022/05/17 02:27:47;;;;;;;0.60;0.20;;;18.10;1.00;;;;;;5030903;28;20840;-75
2022/05/17 02:30:16;;;;;;;0.60;0.10;;;18.10;1.00;;;;;;5031298;28;20434;-74
2022/05/17 02:32:44;;;;;;;0.60;0.10;;;18.10;1.00;;;;;;5031661;28;20494;-73
2022/05/17 02:35:13;;;;;;;0.60;0.10;;;18.10;1.00;;;;;;5031183;28;20210;-73
2022/05/17 02:37:42;;;;;;;0.60;0.20;;;18.10;1.00;;;;;;5030846;28;20995;-73
2022/05/17 02:40:10;;;;;;;0.60;0.20;;;18.00;1.00;;;;;;5031517;28;20883;-73
2022/05/17 02:42:38;;;;;;;0.60;0.20;;;18.00;1.00;;;;;;5031678;28;20898;-74
2022/05/17 02:45:08;;;;;;;0.60;0.10;;;18.00;1.00;;;;;;5032245;28;20873;-74
2022/05/17 02:47:37;;;;;;;1.90;1.80;;;18.00;1.00;;;;;;5032213;28;20443;-74
2022/05/17 02:50:06;;;;;;;0.60;0.10;;;17.90;1.00;;;;;;5030917;28;20453;-74
2022/05/17 02:52:34;;;;;;;0.60;0.10;;;17.80;1.00;;;;;;5031187;28;20911;-74
2022/05/17 02:55:01;;;;;;;0.60;0.10;;;17.80;1.00;;;;;;5031268;28;20453;-74
2022/05/17 02:57:30;;;;;;;0.60;0.20;;;17.80;1.00;;;;;;5030090;28;20456;-74
2022/05/17 02:59:58;;;;;;;0.60;0.10;;;17.80;1.00;;;;;;5030491;28;20453;-74
2022/05/17 03:02:26;;;;;;;0.60;0.13;;;17.80;1.00;;;;;;5030689;28;20520;-74
2022/05/17 03:04:55;;;;;;;0.60;0.20;;;17.80;1.00;;;;;;5087902;22;20492;-79
2022/05/17 03:07:24;;;;;;;0.60;0.10;;;17.80;1.00;;;;;;5069186;28;20443;-78
2022/05/17 03:09:51;;;;;;;0.60;0.10;;;17.80;1.00;;;;;;5081433;28;20499;-78
2022/05/17 03:12:19;;;;;;;0.60;0.10;;;17.80;1.00;;;;;;5083933;28;20505;-79
2022/05/17 03:14:47;;;;;;;0.60;0.10;;;17.90;1.00;;;;;;5108437;28;20511;-79
2022/05/17 03:17:17;;;;;;;0.60;0.10;;;17.90;1.00;;;;;;5101176;28;20446;-80
2022/05/17 03:19:45;;;;;;;0.60;0.10;;;17.90;1.00;;;;;;5093968;28;20440;-80
2022/05/17 03:22:15;;;;;;;0.60;0.10;;;17.90;1.00;;;;;;5094034;28;20203;-79
2022/05/17 03:24:43;;;;;;;0.60;0.10;;;17.80;1.00;;;;;;5088931;28;20461;-79
2022/05/17 03:27:31;;;;;;;0.60;0.10;;;17.80;1.00;;;;;;5080163;28;20449;-79
2022/05/17 03:29:59;;;;;;;0.60;0.10;;;17.80;1.00;;;;;;5091911;28;20469;-78
2022/05/17 03:32:27;;;;;;;0.60;0.10;;;17.70;1.00;;;;;;5091718;28;20464;-79
2022/05/17 03:34:55;;;;;;;0.60;0.10;;;17.70;1.00;;;;;;5091206;28;20471;-80
2022/05/17 03:37:24;;;;;;;0.60;0.20;;;17.70;1.00;;;;;;5071529;28;20441;-80
2022/05/17 03:39:52;;;;;;;0.60;0.20;;;17.70;1.00;;;;;;5097548;28;20460;-80
2022/05/17 03:42:20;;;;;;;0.60;0.20;;;17.70;1.00;;;;;;5112317;28;20445;-79
2022/05/17 03:44:48;;;;;;;0.60;0.10;;;17.70;1.00;;;;;;5115667;28;20452;-80
2022/05/17 03:47:24;;;;;;;0.60;0.10;;;17.70;1.00;;;;;;5083177;28;20441;-80
2022/05/17 03:49:52;;;;;;;0.60;0.10;;;17.70;1.00;;;;;;5090236;28;20214;-79
2022/05/17 03:52:26;;;;;;;0.60;0.10;;;17.70;1.00;;;;;;5093065;28;20470;-81
2022/05/17 03:54:56;;;;;;;0.60;0.10;;;17.70;1.00;;;;;;5093909;28;20483;-80
2022/05/17 03:57:24;;;;;;;0.60;0.20;;;17.70;1.00;;;;;;5089221;28;20439;-80
2022/05/17 03:59:52;;;;;;;0.60;0.20;;;17.60;1.00;;;;;;5084778;28;20442;-81
2022/05/17 04:02:20;;;;;;;0.60;0.20;;;17.70;1.00;;;;;;5084148;28;20457;-81
2022/05/17 04:04:51;;;;;;;0.60;0.20;;;17.70;1.00;;;;;;5094010;28;20535;-79
2022/05/17 04:07:19;;;;;;;0.60;0.10;;;17.70;1.00;;;;;;5083875;28;20558;-80
2022/05/17 04:09:49;;;;;;;0.60;0.20;;;17.70;1.00;;;;;;5081509;28;20435;-79
2022/05/17 04:12:16;;;;;;;0.60;0.10;;;17.70;1.00;;;;;;5075980;28;20468;-80
2022/05/17 04:14:44;;;;;;;0.60;0.10;;;17.70;1.00;;;;;;5076325;28;20482;-82
2022/05/17 04:17:12;;;;;;;0.60;0.10;;;17.70;1.00;;;;;;5076097;28;20471;-79
2022/05/17 04:19:40;;;;;;;0.60;0.10;;;17.70;1.00;;;;;;5075863;28;20440;-80
2022/05/17 04:22:11;;;;;;;0.60;0.20;;;17.70;1.00;;;;;;5075277;28;20490;-81
2022/05/17 04:24:41;;;;;;;0.60;0.10;;;17.80;1.00;;;;;;5090717;28;20453;-78
2022/05/17 04:27:12;;;;;;;0.60;0.20;;;17.80;1.00;;;;;;5105627;28;20447;-78
2022/05/17 04:29:41;;;;;;;0.60;0.10;;;17.90;1.00;;;;;;5096190;28;20189;-79
2022/05/17 04:32:09;;;;;;;4.93;3.83;;;17.90;1.00;;;;;;5078489;28;20529;-80
2022/05/17 04:34:37;;;;;;;0.60;0.20;;;17.90;1.00;;;;;;5095190;28;20478;-79
2022/05/17 04:37:06;;;;;;;0.60;0.20;;;17.90;1.00;;;;;;5081319;28;20446;-75
2022/05/17 04:39:34;;;;;;;0.60;0.10;;;17.90;1.00;;;;;;5060419;28;20445;-78
2022/05/17 04:42:02;;;;;;;0.60;0.10;;;17.90;1.00;;;;;;5061832;28;20454;-79
2022/05/17 04:44:31;;;;;;;0.60;0.10;;;17.80;1.00;;;;;;5061316;28;20458;-79
2022/05/17 04:46:59;;;;;;;0.60;0.20;;;17.80;1.00;;;;;;5054850;28;20878;-78
2022/05/17 04:49:27;;;;;;;0.60;0.10;;;17.80;1.00;;;;;;5055061;28;20459;-79
2022/05/17 04:51:55;;;;;;;0.60;0.10;;;17.80;1.00;;;;;;5071316;28;20445;-79
2022/05/17 04:54:23;;;;;;;0.60;0.10;;;17.80;1.00;;;;;;5082647;28;20886;-79
2022/05/17 04:56:50;;;;;;;0.60;0.17;;;17.80;1.00;;;;;;5074603;28;20449;-79
2022/05/17 04:59:23;;;;;;;0.60;0.10;;;17.80;1.00;;;;;;5074769;28;20556;-74
2022/05/17 05:01:53;;;;;;;0.60;0.20;;;17.90;1.00;;;;;;5072295;28;20453;-74
2022/05/17 05:04:21;;;;;;;0.60;0.10;;;18.00;1.00;;;;;;5071565;28;20481;-73
2022/05/17 05:06:48;;;;;;;2.63;2.53;;;18.10;1.00;;;;;;5071827;28;20798;-73
2022/05/17 05:09:16;;;;;;;0.60;0.20;;;18.20;1.00;;;;;;5072072;28;20445;-73
2022/05/17 05:11:44;;;;;;;0.60;0.20;;;18.40;1.00;;;;;;5072876;28;20446;-73
2022/05/17 05:14:12;;;;;;;1.13;0.97;;;18.60;1.00;;;;;;5072837;28;20478;-74
2022/05/17 05:16:39;;;;;;;0.60;0.10;;;18.70;1.00;;;;;;5071662;28;20458;-74
2022/05/17 05:19:09;;;;;;;0.60;0.10;;;18.90;1.00;;;;;;5072109;28;20482;-73
2022/05/17 05:21:36;;;;;;;0.60;0.20;;;19.10;1.00;;;;;;5072499;28;20448;-74
2022/05/17 05:24:07;;;;;;;0.60;0.10;;;19.30;1.00;;;;;;5077487;28;20507;-74
2022/05/17 05:26:35;;;;;;;0.60;0.10;;;19.40;1.00;;;;;;5080809;28;20449;-74
2022/05/17 05:29:03;;;;;;;0.60;0.10;;;19.50;1.00;;;;;;5081445;28;20544;-73
2022/05/17 05:31:31;;;;;;;0.60;0.10;;;19.60;1.00;;;;;;5091636;28;20967;-73
2022/05/17 05:34:00;;;;;;;0.60;0.20;;;19.80;1.00;;;;;;5091964;28;20481;-72
2022/05/17 05:36:30;;;;;;;0.60;0.10;;;19.80;1.00;;;;;;5077330;28;20215;-74
2022/05/17 05:38:58;;;;;;;0.60;0.17;;;19.90;1.00;;;;;;5090138;28;20825;-71
2022/05/17 05:41:26;;;;;;;0.70;0.47;;;20.00;1.00;;;;;;5084570;28;20443;-73
2022/05/17 05:43:54;;;;;;;0.70;0.20;;;20.00;1.00;;;;;;5077067;28;20462;-72
2022/05/17 05:46:22;;;;;;;0.60;0.13;;;20.10;1.00;;;;;;5078827;28;20932;-73
2022/05/17 05:48:50;;;;;;;0.60;0.10;;;20.00;1.00;;;;;;5077269;28;20454;-73
2022/05/17 05:51:18;;;;;;;0.60;0.20;;;20.00;1.00;;;;;;5082331;28;20442;-72
2022/05/17 05:53:47;;;;;;;0.60;0.13;;;20.10;1.00;;;;;;5090760;28;20462;-73
2022/05/17 05:56:15;;;;;;;0.63;0.27;;;20.10;1.00;;;;;;5090789;28;20443;-73
2022/05/17 05:58:43;;;;;;;0.60;0.10;;;20.20;1.00;;;;;;5090677;28;20544;-73
2022/05/17 06:01:12;;;;;;;0.60;0.10;;;20.30;1.00;;;;;;5069365;28;20457;-73
2022/05/17 06:03:40;;;;;;;0.70;0.20;;;20.40;1.00;;;;;;5073538;28;20502;-73
2022/05/17 06:06:09;;;;;;;0.63;0.10;;;20.40;1.00;;;;;;5077176;28;20444;-73
2022/05/17 06:08:37;;;;;;;0.67;0.10;;;20.30;1.00;;;;;;5085351;28;20206;-74
2022/05/17 06:11:06;;;;;;;0.60;0.10;;;20.30;1.00;;;;;;5069151;28;20537;-74
2022/05/17 06:13:34;;;;;;;0.63;0.20;;;20.30;1.00;;;;;;5079868;28;20232;-73
2022/05/17 06:16:03;;;;;;;0.70;0.20;;;20.30;1.00;;;;;;5085724;28;20479;-73
2022/05/17 06:18:31;;;;;;;1.27;1.17;;;20.20;1.00;;;;;;5090937;28;21009;-72
2022/05/17 06:21:02;;;;;;;0.70;0.20;;;20.20;1.00;;;;;;5091093;28;20450;-73
2022/05/17 06:23:30;;;;;;;1.07;0.93;;;20.10;1.00;;;;;;5090764;28;20466;-73
2022/05/17 06:25:58;;;;;;;2.53;2.43;;;20.10;1.00;;;;;;5088931;28;20533;-74
2022/05/17 06:28:27;;;;;;;0.60;0.10;;;20.10;1.00;;;;;;5070428;28;20457;-75
2022/05/17 06:30:55;;;;;;;3.40;3.20;;;20.20;1.00;;;;;;5070987;28;20952;-74
2022/05/17 06:33:23;;;;;;;0.60;0.10;;;20.30;1.00;;;;;;5073298;28;20479;-75
2022/05/17 06:35:53;;;;;;;0.60;0.10;;;20.30;1.00;;;;;;5061578;28;20488;-76
2022/05/17 06:38:20;;;;;;;0.60;0.20;;;20.40;1.00;;;;;;5051494;28;20209;-75
2022/05/17 06:40:48;;;;;;;0.70;0.20;;;20.60;1.00;;;;;;5053973;28;20977;-74
2022/05/17 06:43:16;;;;;;;0.60;0.10;;;20.60;1.00;;;;;;5050885;28;20461;-74
2022/05/17 06:45:45;;;;;;;0.70;0.10;;;20.50;1.00;;;;;;5050714;28;20531;-75
2022/05/17 06:48:13;;;;;;;0.60;0.10;;;20.50;1.00;;;;;;5050186;28;20445;-75
2022/05/17 06:50:41;;;;;;;0.60;0.10;;;20.50;1.00;;;;;;5050052;28;20446;-75
2022/05/17 06:53:10;;;;;;;0.60;0.10;;;20.60;1.00;;;;;;5050729;28;20476;-76
2022/05/17 06:55:39;;;;;;;0.60;0.10;;;20.60;1.00;;;;;;5050066;28;20590;-75
2022/05/17 06:58:08;;;;;;;0.60;0.10;;;20.70;1.00;;;;;;5049796;28;20931;-75
2022/05/17 07:00:35;;;;;;;0.60;0.10;;;20.80;1.00;;;;;;5052143;28;20461;-76
2022/05/17 07:03:05;;;;;;;0.70;0.17;;;20.90;1.00;;;;;;5053344;28;20479;-76
2022/05/17 07:05:33;;;;;;;0.60;0.20;;;20.90;1.00;;;;;;5053006;28;20445;-76
2022/05/17 07:08:03;;;;;;;0.70;0.10;;;20.90;1.00;;;;;;5052225;28;20448;-76
2022/05/17 07:13:17;;;;;;;0.70;0.20;;;20.90;1.00;;;;;;5054093;28;20771;-76
2022/05/17 07:15:47;;;;;;;0.67;0.10;;;20.90;1.00;;;;;;5054223;28;20485;-74
2022/05/17 07:18:19;;;;;;;0.70;0.20;;;21.00;1.00;;;;;;5053901;28;20437;-75
2022/05/17 07:20:48;;;;;;;0.70;0.40;;;21.00;1.00;;;;;;5054244;28;20448;-75
2022/05/17 07:23:16;;;;;;;0.70;0.10;;;21.10;1.00;;;;;;5054346;28;20465;-74
2022/05/17 07:25:45;;;;;;;0.70;0.10;;;21.10;1.00;;;;;;5054133;28;20445;-74
2022/05/17 07:28:17;;;;;;;0.70;0.17;;;21.20;1.00;;;;;;5053696;28;20205;-76
2022/05/17 07:30:45;;;;;;;0.70;0.20;;;21.30;1.00;;;;;;5054698;28;20446;-76
2022/05/17 07:33:13;;;;;;;0.70;0.10;;;21.40;1.00;;;;;;5053992;28;20587;-75
2022/05/17 07:35:42;;;;;;;0.70;0.17;;;21.60;1.00;;;;;;5053425;28;20975;-74
2022/05/17 07:38:10;;;;;;;0.70;0.10;;;21.60;1.00;;;;;;5053244;28;20822;-75
2022/05/17 07:40:38;;;;;;;0.70;0.10;;;21.70;1.00;;;;;;5054584;28;20442;-75
2022/05/17 07:43:06;;;;;;;0.70;0.10;;;21.90;99.90;;;;;;5058411;28;20440;-75
2022/05/17 07:45:34;;;;;;;0.70;0.20;;;22.00;1.00;;;;;;5056000;28;20481;-74
2022/05/17 07:48:03;;;;;;;0.70;0.10;;;22.10;99.90;;;;;;5056966;28;20464;-74
2022/05/17 07:50:31;;;;;;;0.70;0.30;;;22.10;99.90;;;;;;5083079;28;20460;-75
2022/05/17 07:53:06;;;;;;;0.70;0.10;;;22.10;99.90;;;;;;5083629;28;20449;-74
2022/05/17 07:55:35;;;;;;;0.70;0.10;;;22.20;99.90;;;;;;5093645;28;20874;-75
2022/05/17 07:58:04;;;;;;;0.70;0.10;;;22.20;99.90;;;;;;5083386;28;20461;-76
2022/05/17 08:00:32;;;;;;;0.90;0.63;;;22.20;99.90;;;;;;5079921;28;20451;-74
2022/05/17 08:03:01;;;;;;;0.70;0.10;;;22.10;99.90;;;;;;5078344;28;20461;-74
2022/05/17 08:05:29;;;;;;;0.70;0.10;;;22.10;99.90;;;;;;5070766;28;20535;-77
2022/05/17 08:07:57;;;;;;;0.70;0.10;;;22.10;99.90;;;;;;5078304;28;20544;-77
2022/05/17 08:10:26;;;;;;;0.70;0.10;;;22.10;99.90;;;;;;5089098;28;21094;-75
2022/05/17 08:12:54;;;;;;;0.70;0.10;;;22.20;99.90;;;;;;5071182;28;20463;-75
2022/05/17 08:15:24;;;;;;;0.70;0.10;;;22.20;99.90;;;;;;5064663;28;20569;-76
2022/05/17 08:17:59;;;;;;;0.70;0.10;;;22.30;99.90;;;;;;5072425;28;20439;-75
2022/05/17 08:20:26;;;;;;;0.70;0.10;;;22.40;99.90;;;;;;5072980;28;20449;-76
2022/05/17 08:22:54;;;;;;;0.70;0.10;;;22.50;99.90;;;;;;5071829;28;20456;-75
2022/05/17 08:28:10;;;;;;;0.70;0.20;;;22.60;99.90;;;;;;5069319;28;20452;-77
2022/05/17 08:30:39;;;;;;;0.70;0.20;;;22.60;99.90;;;;;;5078808;28;20442;-76
2022/05/17 08:33:17;;;;;;;0.70;0.10;;;22.70;99.90;;;;;;5075979;28;20444;-75
2022/05/17 08:35:49;;;;;;;0.70;0.17;;;22.70;99.90;;;;;;5072234;28;20477;-76
2022/05/17 08:38:21;;;;;;;0.70;0.20;;;22.80;99.90;;;;;;5072571;28;20441;-74
2022/05/17 08:41:08;;;;;;;0.70;0.20;;;22.80;99.90;;;;;;5072981;28;20507;-75
2022/05/17 08:43:53;;;;;;;1.00;0.50;;;22.80;99.90;;;;;;5073342;28;20473;-75
2022/05/17 08:46:39;;;;;;;0.70;0.20;;;22.70;99.90;;;;;;5072910;28;20460;-76
2022/05/17 08:49:18;;;;;;;0.70;0.20;;;22.70;99.90;;;;;;5073451;28;20199;-75
2022/05/17 08:51:50;;;;;;;0.70;0.10;;;22.70;99.90;;;;;;5072930;28;20441;-75
2022/05/17 08:54:20;;;;;;;0.70;0.20;;;22.70;99.90;;;;;;5072521;28;20556;-75
2022/05/17 08:56:54;;;;;;;0.70;0.10;;;22.80;99.90;;;;;;5071637;28;20477;-74
2022/05/17 08:59:24;;;;;;;0.70;0.10;;;22.90;99.90;;;;;;5071680;28;20651;-75
2022/05/17 09:02:00;;;;;;;0.70;0.10;;;22.90;99.90;;;;;;5072231;28;20536;-74
2022/05/17 09:04:44;;;;;;;0.70;0.10;;;23.00;99.90;;;;;;5071937;28;20480;-75
2022/05/17 09:07:20;;;;;;;0.70;0.20;;;23.10;99.90;;;;;;5071913;28;20445;-75
2022/05/17 09:09:59;;;;;;;0.70;0.20;;;23.10;99.90;;;;;;5072491;28;20216;-75
2022/05/17 09:12:36;;;;;;;0.70;0.20;;;23.10;99.90;;;;;;5072318;28;20445;-75
2022/05/17 09:15:06;;;;;;;0.70;0.10;;;23.10;99.90;;;;;;5071397;28;20470;-76
2022/05/17 09:17:35;;;;;;;0.70;0.10;;;23.10;99.90;;;;;;5071374;28;20488;-76
2022/05/17 09:20:05;;;;;;;0.70;0.20;;;23.00;99.90;;;;;;5072372;28;20488;-75
2022/05/17 09:22:33;;;;;;;0.70;0.20;;;23.00;99.90;;;;;;5071691;28;20438;-76
2022/05/17 09:25:02;;;;;;;0.70;0.30;;;23.10;99.90;;;;;;5071306;28;20490;-75
2022/05/17 09:27:34;;;;;;;0.70;0.10;;;23.10;99.90;;;;;;5056741;28;20435;-75
2022/05/17 09:30:11;;;;;;;0.70;0.17;;;23.20;99.90;;;;;;5051784;28;20449;-77
2022/05/17 09:32:42;;;;;;;0.70;0.10;;;23.20;99.90;;;;;;5051884;28;20453;-75
2022/05/17 09:35:15;;;;;;;0.90;0.40;;;23.40;99.90;;;;;;5051690;28;20859;-76
2022/05/17 09:37:50;;;;;;;0.70;0.20;;;23.50;99.90;;;;;;5051521;28;20482;-76
2022/05/17 09:40:24;;;;;;;0.70;0.10;;;23.60;99.90;;;;;;5051314;28;20446;-76
2022/05/17 09:42:54;;;;;;;0.70;0.10;;;23.60;99.90;;;;;;5051655;28;20208;-75
2022/05/17 09:45:40;;;;;;;0.70;0.20;;;23.60;99.90;;;;;;5051447;28;20439;-75
2022/05/17 09:48:10;;;;;;;0.70;0.10;;;23.60;99.90;;;;;;5051430;28;20447;-75
2022/05/17 09:53:42;;;;;;;0.70;0.20;;;23.90;99.90;;;;;;5054140;28;20478;-76
2022/05/17 09:56:10;;;;;;;0.70;0.10;;;23.90;99.90;;;;;;5050731;28;20235;-76
2022/05/17 09:58:41;;;;;;;0.70;0.10;;;23.90;99.90;;;;;;5053366;28;20973;-76
2022/05/17 10:01:15;;;;;;;0.70;0.20;;;23.90;99.90;;;;;;5055370;28;20455;-75
2022/05/17 10:03:45;;;;;;;0.70;0.10;;;24.00;99.90;;;;;;5052133;28;20294;-76
2022/05/17 10:06:17;;;;;;;0.70;0.20;;;24.10;99.90;;;;;;5050906;28;20551;-76
2022/05/17 10:08:59;;;;;;;0.70;0.10;;;24.20;99.90;;;;;;5050797;28;20461;-76
2022/05/17 10:11:28;;;;;;;0.70;0.20;;;24.20;99.90;;;;;;5050680;28;20451;-76
2022/05/17 10:14:09;;;;;;;0.80;0.20;;;24.20;99.90;;;;;;5065452;28;20482;-77
2022/05/17 10:16:46;;;;;;;0.70;0.20;;;24.20;99.90;;;;;;5067562;28;20485;-75
2022/05/17 10:19:26;;;;;;;0.80;0.43;;;24.40;99.90;;;;;;5082596;28;20445;-75
2022/05/17 10:21:58;;;;;;;0.70;0.10;;;24.40;99.90;;;;;;5091006;28;20437;-75
2022/05/17 10:24:42;;;;;;;0.70;0.10;;;24.30;99.90;;;;;;5079499;28;20485;-75
2022/05/17 10:27:15;;;;;;;0.70;0.10;;;24.30;99.90;;;;;;5073067;28;20477;-73
2022/05/17 10:29:46;;;;;;;0.70;0.20;;;23.40;99.90;;;;;;5083038;28;20452;-74
2022/05/17 10:32:23;;;;;;;0.70;0.20;;;24.40;99.90;;;;;;5091803;28;20937;-74
2022/05/17 10:35:15;;;;;;;0.70;0.10;;;24.40;99.90;;;;;;5089683;28;20677;-78
2022/05/17 10:37:48;;;;;;;0.70;0.10;;;24.50;99.90;;;;;;5070453;28;20517;-79
2022/05/17 10:40:19;;;;;;;0.70;0.10;;;24.50;99.90;;;;;;5081074;28;20441;-77
2022/05/17 10:42:48;;;;;;;0.70;0.10;;;24.70;99.90;;;;;;5055378;28;20436;-77
2022/05/17 10:45:20;;;;;;;0.70;0.10;;;24.80;99.90;;;;;;5054432;28;20534;-78
2022/05/17 10:47:58;;;;;;;0.70;0.10;;;24.90;99.90;;;;;;5057423;28;20213;-77
2022/05/17 10:50:35;;;;;;;0.70;0.10;;;25.20;99.90;;;;;;5055330;28;20443;-78
2022/05/17 10:53:21;;;;;;;0.70;0.10;;;25.10;99.90;;;;;;5059369;28;20461;-76
2022/05/17 10:56:04;;;;;;;0.70;0.10;;;25.10;99.90;;;;;;5087437;28;20461;-78
2022/05/17 10:58:41;;;;;;;0.70;0.10;;;25.30;99.90;;;;;;5083747;28;20484;-78
2022/05/17 11:01:18;;;;;;;0.70;0.10;;;25.40;99.90;;;;;;5081002;28;20467;-79
2022/05/17 11:04:13;;;;;;;0.80;0.43;;;25.30;99.90;;;;;;5082867;28;20474;-79
2022/05/17 11:06:48;;;;;;;1.17;1.07;;;25.30;99.90;;;;;;5060844;28;20450;-78
2022/05/17 11:09:24;;;;;;;0.70;0.10;;;25.20;99.90;;;;;;5093545;28;20445;-79
2022/05/17 11:12:03;;;;;;;0.70;0.20;;;25.10;99.90;;;;;;5078153;28;20444;-77
2022/05/17 11:14:41;;;;;;;0.70;0.20;;;25.00;99.90;;;;;;5077780;28;20470;-78
2022/05/17 11:17:23;;;;;;;0.70;0.10;;;24.80;99.90;;;;;;5076403;28;20487;-80
2022/05/17 11:20:03;;;;;;;1.90;1.27;;;24.80;99.90;;;;;;5075934;28;20569;-78
2022/05/17 11:22:43;;;;;;;0.70;0.20;;;24.70;99.90;;;;;;5074497;28;20868;-78
2022/05/17 11:25:33;;;;;;;0.70;0.10;;;24.60;99.90;;;;;;5074572;28;20472;-78
2022/05/17 11:28:24;;;;;;;1.33;0.50;;;24.60;99.90;;;;;;5078511;28;20569;-78
2022/05/17 11:30:56;;;;;;;0.70;0.10;;;24.60;99.90;;;;;;5074620;28;20457;-77
2022/05/17 11:33:33;;;;;;;0.70;0.20;;;24.40;99.90;;;;;;5074377;28;20482;-77
2022/05/17 11:36:05;;;;;;;0.70;0.20;;;24.40;99.90;;;;;;5074982;28;20541;-78
2022/05/17 11:38:51;;;;;;;0.70;0.10;;;24.40;99.90;;;;;;5075040;28;20481;-77
2022/05/17 11:41:43;;;;;;;0.70;0.10;;;24.40;99.90;;;;;;5075157;28;20199;-76
2022/05/17 11:44:21;;;;;;;0.70;0.20;;;24.40;99.90;;;;;;5074130;28;21010;-77
2022/05/17 11:46:58;;;;;;;0.70;0.10;;;24.40;99.90;;;;;;5075104;28;20464;-78
2022/05/17 11:49:46;;;;;;;1.03;0.63;;;24.40;99.90;;;;;;5074670;28;20479;-78
2022/05/17 11:52:37;;;;;;;0.70;0.30;;;24.30;99.90;;;;;;5075006;28;20426;-78
2022/05/17 11:55:11;;;;;;;0.70;0.20;;;24.30;99.90;;;;;;5075456;28;20454;-79
2022/05/17 11:58:03;;;;;;;0.80;0.50;;;24.30;99.90;;;;;;5074263;28;20855;-76
2022/05/17 12:00:44;;;;;;;0.70;0.13;;;24.40;99.90;;;;;;5079299;28;20437;-78
2022/05/17 12:03:42;;;;;;;0.70;0.10;;;24.30;99.90;;;;;;5075361;28;20548;-79
2022/05/17 12:06:28;;;;;;;0.70;0.30;;;24.30;99.90;;;;;;5079593;28;20529;-78
2022/05/17 12:08:57;;;;;;;0.70;0.20;;;24.30;99.90;;;;;;5078011;28;20465;-78
2022/05/17 12:11:36;;;;;;;0.70;0.20;;;24.30;99.90;;;;;;5081645;28;20453;-78
2022/05/17 12:14:21;;;;;;;0.70;0.10;;;24.30;99.90;;;;;;5078413;28;21011;-78
2022/05/17 12:16:51;;;;;;;0.70;0.10;;;24.30;99.90;;;;;;5073966;28;20438;-79
2022/05/17 12:19:26;;;;;;;0.70;0.20;;;24.30;99.90;;;;;;5082083;28;20530;-78
2022/05/17 12:21:58;;;;;;;0.70;0.10;;;24.30;99.90;;;;;;5081302;28;20452;-78
2022/05/17 12:24:46;;;;;;;0.70;0.20;;;24.40;99.90;;;;;;5075301;28;20497;-78
2022/05/17 12:27:23;;;;;;;0.70;0.10;;;24.40;99.90;;;;;;5063584;28;20501;-77
2022/05/17 12:32:46;;;;;;;0.70;0.10;;;24.50;99.90;;;;;;5062614;28;20531;-76
2022/05/17 12:35:14;;;;;;;0.70;0.10;;;24.50;99.90;;;;;;5062833;28;20478;-77
2022/05/17 12:37:44;;;;;;;0.70;0.10;;;24.50;99.90;;;;;;5063505;28;21140;-79
2022/05/17 12:43:07;;;;;;;0.70;0.10;;;24.70;99.90;;;;;;5064408;28;20453;-78
2022/05/17 12:45:40;;;;;;;0.70;0.10;;;24.70;99.90;;;;;;5064548;28;20201;-77
2022/05/17 12:48:29;;;;;;;0.70;0.20;;;24.80;99.90;;;;;;5059613;28;20538;-78
2022/05/17 12:51:01;;;;;;;0.70;0.10;;;24.90;99.90;;;;;;5067768;28;20443;-78
2022/05/17 12:53:36;;;;;;;0.80;0.33;;;25.10;99.90;;;;;;5070068;28;20465;-78
2022/05/17 12:56:08;;;;;;;0.70;0.13;;;25.10;99.90;;;;;;5072083;28;20447;-78
2022/05/17 12:58:48;;;;;;;0.70;0.10;;;25.10;99.90;;;;;;5073151;28;20487;-78
2022/05/17 13:01:23;;;;;;;0.70;0.20;;;25.10;99.90;;;;;;5063301;28;20446;-78
2022/05/17 13:03:54;;;;;;;0.70;0.13;;;25.10;99.90;;;;;;5059880;28;20466;-78
2022/05/17 13:06:22;;;;;;;0.70;0.27;;;25.10;99.90;;;;;;5058458;28;20439;-78
2022/05/17 13:08:50;;;;;;;0.70;0.10;;;;;;;;;;5060181;28;20508;-80
2022/05/17 13:11:25;;;;;;;0.70;0.10;;;25.30;99.90;;;;;;5060287;28;20451;-80
2022/05/17 13:13:58;;;;;;;0.70;0.20;;;25.40;99.90;;;;;;5059689;28;20456;-79
2022/05/17 13:16:29;;;;;;;0.70;0.13;;;25.40;99.90;;;;;;5059589;28;20471;-78
2022/05/17 13:19:01;;;;;;;0.70;0.20;;;25.50;99.90;;;;;;5055680;28;20480;-77
2022/05/17 13:21:33;;;;;;;0.70;0.20;;;25.80;99.90;;;;;;5054078;28;20527;-77
2022/05/17 13:24:03;;;;;;;0.70;0.10;;;26.00;99.90;;;;;;5052803;28;20525;-77
2022/05/17 13:26:35;;;;;;;0.70;0.10;;;26.10;99.90;;;;;;5056753;28;20454;-78
2022/05/17 13:29:24;;;;;;;0.70;0.20;;;26.20;99.90;;;;;;5053583;28;20438;-78
2022/05/17 13:31:55;;;;;;;0.70;0.20;;;26.20;99.90;;;;;;5052355;28;20903;-77